Time;durP1;ratioP1;P1;durP2;ratioP2;P2;SDS_P1;SDS_P2;PMS_P1;PMS_P2;Temp;Humidity;BMP_temperature;BMP_pressure;BME280_temperature;BME280_humidity;BME280_pressure;Samples;Min_cycle;Max_cycle;Signal;HPM_P1;HPM_P2
2021/11/20 00:00:55;;;;;;;22.10;19.65;;;11.60;84.60;;;;;;5050841;28;20471;-73
2021/11/20 00:03:21;;;;;;;20.13;17.90;;;11.60;84.60;;;;;;5056311;28;20044;-73
2021/11/20 00:05:50;;;;;;;20.73;18.38;;;11.60;84.60;;;;;;5046065;28;20037;-73
2021/11/20 00:08:17;;;;;;;19.63;17.23;;;11.60;84.60;;;;;;5044841;28;20056;-72
2021/11/20 00:10:45;;;;;;;21.90;19.40;;;11.60;84.60;;;;;;5053923;28;20926;-73
2021/11/20 00:13:12;;;;;;;20.55;17.90;;;11.50;84.70;;;;;;5050689;28;20026;-73
2021/11/20 00:15:43;;;;;;;23.50;19.20;;;11.60;84.70;;;;;;5051946;28;20372;-71
2021/11/20 00:18:09;;;;;;;22.08;18.60;;;11.60;84.70;;;;;;5051700;28;20060;-73
2021/11/20 00:20:45;;;;;;;20.65;17.88;;;11.60;84.70;;;;;;5038413;28;20114;-73
2021/11/20 00:23:12;;;;;;;19.55;16.88;;;11.60;84.70;;;;;;5058798;28;20501;-72
2021/11/20 00:25:55;;;;;;;20.35;17.73;;;11.50;84.70;;;;;;5048876;28;20117;-72
2021/11/20 00:28:28;;;;;;;23.42;19.60;;;11.50;84.80;;;;;;5035704;28;20468;-72
2021/11/20 00:30:59;;;;;;;21.77;18.23;;;11.50;84.70;;;;;;5065578;28;20104;-72
2021/11/20 00:33:30;;;;;;;20.13;17.75;;;11.60;84.70;;;;;;5044829;28;20069;-73
2021/11/20 00:35:59;;;;;;;19.60;17.50;;;11.60;84.80;;;;;;5046611;28;20076;-72
2021/11/20 00:38:27;;;;;;;22.48;18.17;;;11.60;84.80;;;;;;5042169;28;20044;-73
2021/11/20 00:41:08;;;;;;;20.45;18.25;;;11.50;84.80;;;;;;5053720;28;20041;-72
2021/11/20 00:43:35;;;;;;;20.05;16.48;;;11.60;84.90;;;;;;5051114;28;20462;-72
2021/11/20 00:46:01;;;;;;;22.17;19.35;;;11.60;85.00;;;;;;5066294;28;20539;-74
2021/11/20 00:48:27;;;;;;;23.08;19.23;;;11.60;84.40;;;;;;5044936;28;20033;-72
2021/11/20 00:50:58;;;;;;;21.15;17.88;;;11.50;84.30;;;;;;5038726;28;20029;-71
2021/11/20 00:53:25;;;;;;;20.45;16.85;;;11.50;84.30;;;;;;5044107;28;20421;-73
2021/11/20 00:55:51;;;;;;;21.25;18.02;;;11.50;84.50;;;;;;5035292;28;20033;-73
2021/11/20 00:58:17;;;;;;;22.55;18.58;;;11.50;84.50;;;;;;5031453;28;20584;-77
2021/11/20 01:00:54;;;;;;;21.67;18.17;;;11.50;84.60;;;;;;5043362;28;20028;-72
2021/11/20 01:03:21;;;;;;;23.23;19.40;;;11.50;84.60;;;;;;5063389;28;20028;-72
2021/11/20 01:05:47;;;;;;;24.00;20.40;;;11.50;84.50;;;;;;5064184;28;20036;-72
2021/11/20 01:08:15;;;;;;;21.20;18.17;;;11.50;84.40;;;;;;5062644;28;20047;-71
2021/11/20 01:10:47;;;;;;;22.23;18.73;;;11.50;84.40;;;;;;5034811;28;20040;-73
2021/11/20 01:13:14;;;;;;;23.27;20.25;;;11.50;84.40;;;;;;5065606;28;20037;-72
2021/11/20 01:15:51;;;;;;;23.25;19.70;;;11.50;84.40;;;;;;5066534;28;20051;-73
2021/11/20 01:18:19;;;;;;;24.55;20.88;;;11.50;84.40;;;;;;5044802;28;20030;-73
2021/11/20 01:20:45;;;;;;;24.80;20.75;;;11.50;84.20;;;;;;5050638;28;20029;-72
2021/11/20 01:23:11;;;;;;;27.25;22.40;;;11.50;84.20;;;;;;5045218;28;20067;-72
2021/11/20 01:25:37;;;;;;;26.70;22.10;;;11.60;84.20;;;;;;5053192;28;20025;-76
2021/11/20 01:28:04;;;;;;;29.90;24.00;;;11.50;84.20;;;;;;5071642;28;20028;-72
2021/11/20 01:30:30;;;;;;;27.45;22.52;;;11.50;84.10;;;;;;5054405;28;20041;-72
2021/11/20 01:32:56;;;;;;;27.38;22.73;;;11.50;84.00;;;;;;5041785;28;20027;-72
2021/11/20 01:35:21;;;;;;;27.70;22.30;;;11.50;84.00;;;;;;5036631;28;20410;-72
2021/11/20 01:37:47;;;;;;;25.70;20.75;;;11.50;84.00;;;;;;5036505;28;20124;-72
2021/11/20 01:40:17;;;;;;;28.92;23.23;;;11.50;84.10;;;;;;5042976;28;20048;-73
2021/11/20 01:42:44;;;;;;;29.48;23.10;;;11.50;84.20;;;;;;5048750;28;20087;-75
2021/11/20 01:45:12;;;;;;;29.60;22.73;;;11.50;84.10;;;;;;5044568;28;20029;-72
2021/11/20 01:47:59;;;;;;;31.05;24.48;;;11.50;84.10;;;;;;5058209;28;20036;-73
2021/11/20 01:50:37;;;;;;;30.65;24.30;;;11.50;84.20;;;;;;5053253;28;20106;-72
2021/11/20 01:53:09;;;;;;;27.10;21.85;;;11.50;84.20;;;;;;5050471;28;20031;-73
2021/11/20 01:55:55;;;;;;;29.48;22.85;;;11.50;84.30;;;;;;5047941;28;20029;-71
2021/11/20 01:58:35;;;;;;;29.65;24.30;;;11.50;84.40;;;;;;5042464;28;20075;-72
2021/11/20 02:01:13;;;;;;;33.13;24.88;;;11.50;84.40;;;;;;5044860;28;20029;-73
2021/11/20 02:04:24;;;;;;;31.83;26.13;;;11.50;84.50;;;;;;5064615;28;20025;-72
2021/11/20 02:07:32;;;;;;;34.40;25.90;;;11.50;84.50;;;;;;5056587;28;20101;-72
2021/11/20 02:10:06;;;;;;;37.15;28.38;;;11.50;84.50;;;;;;5021360;28;20033;-72
2021/11/20 02:12:54;;;;;;;34.92;26.48;;;11.50;84.50;;;;;;5002690;28;20038;-73
2021/11/20 02:15:37;;;;;;;30.95;24.90;;;11.50;84.60;;;;;;5042203;28;20111;-74
2021/11/20 02:18:04;;;;;;;34.58;27.95;;;11.50;84.60;;;;;;5044939;28;20032;-72
2021/11/20 02:20:45;;;;;;;35.15;28.63;;;11.40;84.60;;;;;;5049733;28;20472;-71
2021/11/20 02:23:11;;;;;;;34.20;29.48;;;11.50;84.70;;;;;;5049353;28;20482;-75
2021/11/20 02:25:36;;;;;;;35.30;28.63;;;11.40;84.80;;;;;;5067796;28;20037;-72
2021/11/20 02:28:04;;;;;;;41.20;29.23;;;11.40;84.80;;;;;;5051312;28;20040;-71
2021/11/20 02:30:36;;;;;;;34.88;29.05;;;11.50;84.70;;;;;;5063937;28;20087;-76
2021/11/20 02:33:14;;;;;;;33.58;28.20;;;11.40;84.70;;;;;;5067732;28;20020;-73
2021/11/20 02:35:48;;;;;;;33.03;27.73;;;11.40;84.60;;;;;;5063665;28;20403;-72
2021/11/20 02:38:24;;;;;;;34.38;28.77;;;11.40;84.60;;;;;;5059436;28;20139;-72
2021/11/20 02:40:50;;;;;;;35.70;27.20;;;11.50;84.70;;;;;;5067093;28;20494;-72
2021/11/20 02:43:17;;;;;;;32.70;27.27;;;11.50;84.70;;;;;;5074336;28;20488;-72
2021/11/20 02:45:52;;;;;;;35.95;29.33;;;11.50;84.70;;;;;;5065958;28;20052;-72
2021/11/20 02:48:18;;;;;;;34.50;28.85;;;11.40;84.70;;;;;;5066734;28;20072;-74
2021/11/20 02:50:54;;;;;;;33.45;27.40;;;11.50;84.80;;;;;;5066804;28;20032;-73
2021/11/20 02:53:42;;;;;;;34.95;29.42;;;11.50;84.90;;;;;;5065570;28;20123;-72
2021/11/20 02:56:14;;;;;;;35.45;28.95;;;11.50;85.00;;;;;;5066081;28;20024;-72
2021/11/20 02:58:41;;;;;;;35.92;28.85;;;11.50;85.00;;;;;;5062983;28;20070;-72
2021/11/20 03:01:16;;;;;;;34.03;28.58;;;11.50;85.10;;;;;;5067057;28;20111;-73
2021/11/20 03:03:42;;;;;;;34.67;27.77;;;11.50;85.20;;;;;;5071483;28;20515;-72
2021/11/20 03:06:07;;;;;;;35.38;28.50;;;11.50;85.20;;;;;;5070261;28;20402;-72
2021/11/20 03:08:34;;;;;;;34.58;28.83;;;11.50;85.30;;;;;;5067305;28;20703;-72
2021/11/20 03:11:00;;;;;;;32.92;27.25;;;11.50;85.30;;;;;;5063462;28;20092;-71
2021/11/20 03:13:26;;;;;;;33.75;28.23;;;11.50;85.50;;;;;;5060193;28;20547;-73
2021/11/20 03:15:52;;;;;;;32.35;26.50;;;11.50;85.50;;;;;;5065421;28;20098;-72
2021/11/20 03:18:17;;;;;;;33.28;27.10;;;11.50;85.60;;;;;;5066808;28;20041;-71
2021/11/20 03:20:44;;;;;;;31.65;27.27;;;11.50;85.80;;;;;;5064707;28;20028;-72
2021/11/20 03:23:13;;;;;;;31.17;25.15;;;11.50;85.80;;;;;;5058851;28;20427;-73
2021/11/20 03:25:39;;;;;;;31.10;26.10;;;11.50;85.90;;;;;;5064204;28;20364;-74
2021/11/20 03:28:04;;;;;;;30.77;24.58;;;11.50;86.00;;;;;;5059957;28;20031;-72
2021/11/20 03:30:30;;;;;;;29.60;24.55;;;11.50;86.00;;;;;;5064858;28;20060;-72
2021/11/20 03:32:57;;;;;;;30.30;25.08;;;11.50;86.20;;;;;;5067457;28;20024;-74
2021/11/20 03:35:23;;;;;;;30.63;25.83;;;11.50;86.30;;;;;;5054508;28;20028;-72
2021/11/20 03:37:51;;;;;;;30.23;24.30;;;11.50;86.30;;;;;;5075046;28;20066;-73
2021/11/20 03:40:17;;;;;;;27.30;22.92;;;11.50;86.10;;;;;;5066347;28;20045;-75
2021/11/20 03:42:43;;;;;;;27.55;23.00;;;11.50;86.10;;;;;;5055874;28;20037;-72
2021/11/20 03:45:09;;;;;;;27.70;23.48;;;11.50;86.10;;;;;;5059503;28;20030;-73
2021/11/20 03:47:35;;;;;;;28.25;22.63;;;11.50;86.10;;;;;;5040586;28;20349;-73
2021/11/20 03:50:02;;;;;;;26.55;20.85;;;11.40;86.10;;;;;;5051114;28;20039;-73
2021/11/20 03:52:28;;;;;;;23.60;20.77;;;11.50;86.10;;;;;;5045708;28;20475;-72
2021/11/20 03:54:54;;;;;;;27.08;21.00;;;11.50;86.20;;;;;;5063358;28;20056;-72
2021/11/20 03:57:20;;;;;;;26.67;21.92;;;11.40;86.20;;;;;;5064561;28;20025;-73
2021/11/20 03:59:47;;;;;;;26.00;21.23;;;11.40;86.20;;;;;;5062487;28;20037;-76
2021/11/20 04:02:13;;;;;;;27.10;21.55;;;11.50;86.20;;;;;;5039864;28;20125;-71
2021/11/20 04:04:39;;;;;;;26.83;20.98;;;11.40;86.20;;;;;;5062851;28;20109;-71
2021/11/20 04:07:04;;;;;;;28.15;22.00;;;11.50;86.30;;;;;;5046641;28;20489;-72
2021/11/20 04:09:30;;;;;;;26.17;21.45;;;11.50;86.20;;;;;;5062364;28;20038;-73
2021/11/20 04:11:56;;;;;;;27.25;20.73;;;11.50;86.10;;;;;;5046780;28;20550;-72
2021/11/20 04:14:22;;;;;;;25.88;20.35;;;11.50;86.20;;;;;;5049611;28;20468;-71
2021/11/20 04:16:49;;;;;;;26.00;21.40;;;11.50;86.20;;;;;;5047014;28;20075;-72
2021/11/20 04:19:15;;;;;;;28.67;23.67;;;11.50;86.30;;;;;;5050382;28;20090;-73
2021/11/20 04:21:41;;;;;;;27.88;22.13;;;11.50;86.40;;;;;;5042077;28;20098;-73
2021/11/20 04:24:08;;;;;;;28.38;22.27;;;11.40;86.50;;;;;;5035206;28;20087;-72
2021/11/20 04:26:34;;;;;;;29.55;23.92;;;11.40;86.60;;;;;;5050711;28;20032;-72
2021/11/20 04:29:00;;;;;;;28.70;23.55;;;11.50;86.50;;;;;;5033782;28;20492;-71
2021/11/20 04:31:26;;;;;;;28.73;23.42;;;11.40;86.50;;;;;;5036036;28;21112;-74
2021/11/20 04:33:53;;;;;;;28.65;22.75;;;11.40;86.60;;;;;;5056328;28;20418;-74
2021/11/20 04:36:21;;;;;;;26.13;22.27;;;11.50;86.60;;;;;;5032369;28;20033;-73
2021/11/20 04:38:47;;;;;;;27.85;22.48;;;11.40;86.70;;;;;;5038050;28;20533;-72
2021/11/20 04:41:14;;;;;;;24.92;21.10;;;11.40;86.80;;;;;;5037625;28;20033;-72
2021/11/20 04:43:43;;;;;;;28.63;22.40;;;11.40;86.90;;;;;;5048977;28;20472;-74
2021/11/20 04:46:10;;;;;;;27.55;22.33;;;11.40;87.00;;;;;;5047239;28;20037;-72
2021/11/20 04:48:36;;;;;;;25.45;19.90;;;11.40;87.20;;;;;;5046563;28;20021;-72
2021/11/20 04:51:01;;;;;;;27.17;20.48;;;11.40;87.30;;;;;;5070173;28;20210;-72
2021/11/20 04:53:32;;;;;;;27.67;22.73;;;11.40;87.30;;;;;;5056855;28;20521;-74
2021/11/20 04:55:58;;;;;;;24.92;20.60;;;11.40;87.50;;;;;;5043221;28;20036;-73
2021/11/20 04:58:27;;;;;;;27.17;20.50;;;11.40;87.60;;;;;;5063363;28;20033;-71
2021/11/20 05:00:55;;;;;;;25.95;20.02;;;11.40;87.60;;;;;;5062098;28;20041;-73
2021/11/20 05:03:23;;;;;;;27.13;21.73;;;11.40;87.90;;;;;;5071506;28;20349;-72
2021/11/20 05:05:51;;;;;;;24.85;20.85;;;11.40;88.00;;;;;;5068972;28;20031;-71
2021/11/20 05:08:17;;;;;;;26.95;21.27;;;11.40;88.10;;;;;;5050702;28;20089;-72
2021/11/20 05:10:43;;;;;;;26.02;20.23;;;11.40;88.20;;;;;;5044776;28;20037;-76
2021/11/20 05:13:10;;;;;;;25.48;20.90;;;11.40;88.20;;;;;;5064061;28;20023;-71
2021/11/20 05:15:38;;;;;;;27.98;22.10;;;11.40;88.30;;;;;;5068674;28;20032;-72
2021/11/20 05:18:05;;;;;;;27.85;21.88;;;11.30;88.40;;;;;;5067424;28;21250;-72
2021/11/20 05:20:30;;;;;;;27.33;20.88;;;11.30;88.40;;;;;;5063026;28;20017;-72
2021/11/20 05:22:56;;;;;;;29.08;21.33;;;11.30;88.50;;;;;;5069154;28;20027;-72
2021/11/20 05:25:23;;;;;;;29.00;21.08;;;11.30;88.50;;;;;;5060888;28;20029;-72
2021/11/20 05:27:52;;;;;;;26.52;20.95;;;11.30;88.60;;;;;;5054413;28;20029;-73
2021/11/20 05:30:27;;;;;;;27.27;20.65;;;11.30;88.50;;;;;;5052232;28;20433;-72
2021/11/20 05:32:54;;;;;;;24.92;20.02;;;11.30;88.30;;;;;;5036968;28;20033;-73
2021/11/20 05:35:22;;;;;;;26.30;21.15;;;11.40;88.40;;;;;;5040360;28;20022;-72
2021/11/20 05:37:47;;;;;;;25.92;20.13;;;11.30;88.40;;;;;;5041000;28;20029;-72
2021/11/20 05:40:16;;;;;;;26.92;20.42;;;11.30;88.40;;;;;;5040259;28;20087;-72
2021/11/20 05:42:45;;;;;;;26.73;20.30;;;11.30;88.40;;;;;;5059819;28;20033;-73
2021/11/20 05:45:13;;;;;;;26.02;19.15;;;11.20;88.40;;;;;;5066681;28;20032;-72
2021/11/20 05:47:39;;;;;;;22.95;19.20;;;11.20;88.40;;;;;;5070390;28;20063;-75
2021/11/20 05:50:07;;;;;;;24.52;19.27;;;11.20;88.40;;;;;;5056196;28;21129;-72
2021/11/20 05:52:34;;;;;;;24.20;18.45;;;11.30;88.30;;;;;;5049311;28;20052;-71
2021/11/20 05:54:59;;;;;;;26.58;18.17;;;11.20;88.30;;;;;;5046984;28;20090;-72
2021/11/20 05:57:25;;;;;;;22.88;18.70;;;11.20;88.30;;;;;;5036304;28;20063;-75
2021/11/20 05:59:51;;;;;;;24.10;18.20;;;11.20;88.20;;;;;;5047867;28;20092;-73
2021/11/20 06:02:17;;;;;;;22.00;17.83;;;11.20;88.20;;;;;;5041366;28;20501;-72
2021/11/20 06:04:44;;;;;;;22.10;17.70;;;11.10;88.20;;;;;;5039384;28;20021;-71
2021/11/20 06:07:11;;;;;;;23.38;17.23;;;11.10;88.20;;;;;;5052069;28;20063;-72
2021/11/20 06:09:38;;;;;;;26.20;18.13;;;11.10;88.10;;;;;;5049378;28;20036;-72
2021/11/20 06:12:04;;;;;;;22.80;16.83;;;11.10;88.00;;;;;;5056506;28;20122;-72
2021/11/20 06:14:30;;;;;;;23.88;16.88;;;11.10;88.00;;;;;;5047103;28;20140;-72
2021/11/20 06:16:56;;;;;;;25.42;16.70;;;11.10;87.90;;;;;;5063516;28;20028;-72
2021/11/20 06:19:21;;;;;;;23.00;16.73;;;11.20;87.90;;;;;;5066747;28;20380;-76
2021/11/20 06:21:47;;;;;;;22.63;16.73;;;11.10;87.70;;;;;;5060940;28;20534;-71
2021/11/20 06:24:13;;;;;;;24.27;17.63;;;11.10;87.60;;;;;;5064241;28;20047;-71
2021/11/20 06:26:39;;;;;;;21.15;16.48;;;11.10;87.50;;;;;;5066396;28;20483;-72
2021/11/20 06:29:05;;;;;;;22.70;16.67;;;11.10;87.50;;;;;;5066307;28;20044;-72
2021/11/20 06:31:31;;;;;;;21.33;15.98;;;11.10;87.50;;;;;;5066981;28;20486;-72
2021/11/20 06:34:00;;;;;;;21.55;16.55;;;11.10;87.40;;;;;;5071174;28;20052;-72
2021/11/20 06:36:27;;;;;;;23.08;16.48;;;11.10;87.30;;;;;;5054662;28;20033;-71
2021/11/20 06:38:53;;;;;;;22.63;15.77;;;11.10;87.20;;;;;;5041224;28;20492;-71
2021/11/20 06:41:19;;;;;;;22.48;16.00;;;11.10;87.00;;;;;;5039462;28;20021;-71
2021/11/20 06:43:45;;;;;;;23.15;17.40;;;11.10;87.00;;;;;;5049138;28;20078;-75
2021/11/20 06:46:13;;;;;;;21.90;16.67;;;11.10;86.90;;;;;;5059832;28;20110;-72
2021/11/20 06:48:40;;;;;;;20.58;15.85;;;11.10;86.90;;;;;;5049365;28;20095;-72
2021/11/20 06:51:07;;;;;;;25.73;19.27;;;11.10;86.90;;;;;;5048505;28;20034;-72
2021/11/20 06:53:36;;;;;;;25.63;17.23;;;11.10;86.90;;;;;;5050474;28;20036;-75
2021/11/20 06:56:03;;;;;;;23.73;17.38;;;11.10;87.00;;;;;;5037598;28;20022;-72
2021/11/20 07:01:01;;;;;;;20.88;15.77;;;11.10;86.90;;;;;;5043584;28;20049;-74
2021/11/20 07:03:41;;;;;;;20.98;15.82;;;11.10;86.90;;;;;;5060933;28;20036;-72
2021/11/20 07:06:12;;;;;;;20.73;15.23;;;11.10;86.80;;;;;;5050441;28;20051;-68
2021/11/20 07:08:38;;;;;;;21.67;16.42;;;11.10;86.60;;;;;;5040114;28;20041;-70
2021/11/20 07:11:04;;;;;;;22.33;16.10;;;11.10;86.40;;;;;;5042988;28;20024;-72
2021/11/20 07:13:30;;;;;;;24.08;16.33;;;11.10;86.30;;;;;;5049688;28;20037;-69
2021/11/20 07:15:56;;;;;;;20.98;15.27;;;11.10;86.50;;;;;;5039138;28;20037;-72
2021/11/20 07:18:23;;;;;;;20.30;15.50;;;11.10;86.40;;;;;;5026004;28;20052;-73
2021/11/20 07:20:49;;;;;;;20.67;15.75;;;11.10;86.30;;;;;;5029383;28;20044;-70
2021/11/20 07:23:15;;;;;;;19.17;15.15;;;11.10;86.10;;;;;;5030998;28;20554;-75
2021/11/20 07:25:41;;;;;;;19.08;14.77;;;11.00;86.00;;;;;;5025121;28;20117;-73
2021/11/20 07:28:07;;;;;;;20.73;15.18;;;11.10;86.00;;;;;;5029204;28;20029;-73
2021/11/20 07:30:35;;;;;;;19.30;14.40;;;11.10;85.90;;;;;;5012008;28;20048;-73
2021/11/20 07:33:02;;;;;;;20.58;14.90;;;11.00;85.70;;;;;;5030776;28;20292;-73
2021/11/20 07:35:34;;;;;;;20.13;14.98;;;11.10;85.60;;;;;;5035413;28;20500;-70
2021/11/20 07:38:02;;;;;;;19.55;15.05;;;11.10;85.50;;;;;;5030297;28;20119;-73
2021/11/20 07:40:30;;;;;;;19.05;14.05;;;11.10;85.50;;;;;;5049413;28;20472;-74
2021/11/20 07:42:56;;;;;;;23.05;15.00;;;11.10;85.60;;;;;;5052823;28;20029;-71
2021/11/20 07:45:22;;;;;;;19.63;14.45;;;11.00;85.30;;;;;;5055040;28;20436;-71
2021/11/20 07:47:48;;;;;;;23.20;14.45;;;11.10;85.40;;;;;;5051275;28;20029;-72
2021/11/20 07:50:16;;;;;;;20.25;14.90;;;11.00;85.30;;;;;;5033219;28;20037;-69
2021/11/20 07:52:42;;;;;;;19.70;14.57;;;11.00;85.40;;;;;;5049739;28;20612;-70
2021/11/20 07:55:11;;;;;;;19.02;14.27;;;11.00;85.40;;;;;;5038165;28;20535;-69
2021/11/20 07:57:38;;;;;;;20.30;14.93;;;11.10;85.30;;;;;;5039002;28;20100;-71
2021/11/20 08:00:08;;;;;;;22.13;15.73;;;11.10;85.20;;;;;;5027641;28;20037;-72
2021/11/20 08:02:34;;;;;;;21.40;15.43;;;11.10;85.20;;;;;;5034435;28;20056;-70
2021/11/20 08:05:00;;;;;;;20.08;16.08;;;11.10;84.70;;;;;;5039348;28;20457;-71
2021/11/20 08:07:25;;;;;;;20.63;15.43;;;11.10;84.60;;;;;;5040644;28;20107;-69
2021/11/20 08:09:51;;;;;;;23.92;16.83;;;11.10;84.70;;;;;;5043904;28;20392;-69
2021/11/20 08:12:17;;;;;;;21.60;16.05;;;11.10;84.70;;;;;;5041193;28;20040;-71
2021/11/20 08:14:42;;;;;;;23.23;17.25;;;11.10;84.90;;;;;;5052388;28;20047;-73
2021/11/20 08:17:10;;;;;;;19.88;15.38;;;11.10;84.80;;;;;;5043879;28;20060;-71
2021/11/20 08:19:36;;;;;;;22.85;16.65;;;11.10;84.80;;;;;;5063502;28;20072;-70
2021/11/20 08:22:02;;;;;;;20.88;16.52;;;11.10;84.70;;;;;;5063959;28;20078;-72
2021/11/20 08:24:28;;;;;;;18.98;15.05;;;11.10;84.90;;;;;;5067449;28;20119;-69
2021/11/20 08:26:54;;;;;;;23.38;16.85;;;11.10;84.90;;;;;;5068483;28;20123;-71
2021/11/20 08:29:21;;;;;;;23.60;17.77;;;11.10;84.60;;;;;;5066149;28;20048;-70
2021/11/20 08:31:48;;;;;;;22.83;17.05;;;11.10;84.70;;;;;;5059656;28;20053;-70
2021/11/20 08:34:15;;;;;;;20.90;16.65;;;11.10;84.50;;;;;;5043172;28;20033;-69
2021/11/20 08:36:42;;;;;;;28.02;18.30;;;11.10;84.40;;;;;;5052092;28;20037;-69
2021/11/20 08:39:11;;;;;;;23.88;18.83;;;11.20;84.30;;;;;;5057912;28;20049;-70
2021/11/20 08:41:36;;;;;;;23.02;17.13;;;11.20;84.20;;;;;;5042358;28;20469;-69
2021/11/20 08:44:03;;;;;;;22.30;18.33;;;11.20;84.20;;;;;;5055587;28;20142;-73
2021/11/20 08:46:29;;;;;;;23.77;19.95;;;11.20;84.20;;;;;;5052075;28;20395;-71
2021/11/20 08:48:55;;;;;;;24.90;19.83;;;11.20;83.90;;;;;;5053417;28;20033;-70
2021/11/20 08:51:23;;;;;;;23.70;19.42;;;11.20;83.80;;;;;;5064956;28;20104;-72
2021/11/20 08:53:50;;;;;;;25.33;20.30;;;11.20;83.70;;;;;;5057055;28;20033;-69
2021/11/20 08:56:16;;;;;;;25.27;21.08;;;11.20;83.50;;;;;;5053211;28;20032;-69
2021/11/20 08:58:42;;;;;;;27.20;21.98;;;11.20;83.50;;;;;;5044333;28;20132;-71
2021/11/20 09:01:20;;;;;;;26.88;23.05;;;11.30;83.10;;;;;;5047269;28;20170;-70
2021/11/20 09:04:02;;;;;;;26.67;22.10;;;11.30;83.00;;;;;;5036052;28;20111;-70
2021/11/20 09:06:49;;;;;;;25.15;21.75;;;11.20;82.60;;;;;;5065297;28;20032;-71
2021/11/20 09:09:44;;;;;;;23.98;20.67;;;11.30;82.60;;;;;;5055273;28;20033;-72
2021/11/20 09:12:28;;;;;;;24.42;21.30;;;11.30;82.60;;;;;;5053446;28;20029;-70
2021/11/20 09:15:01;;;;;;;24.75;21.23;;;11.20;82.70;;;;;;5040482;28;20037;-71
2021/11/20 09:17:27;;;;;;;25.77;21.17;;;11.30;82.60;;;;;;5070947;28;20626;-72
2021/11/20 09:19:53;;;;;;;25.17;20.60;;;11.30;82.80;;;;;;5056521;28;20077;-70
2021/11/20 09:22:19;;;;;;;24.90;20.60;;;11.30;82.90;;;;;;5057225;28;20099;-70
2021/11/20 09:24:48;;;;;;;23.67;20.00;;;11.30;83.00;;;;;;5059574;28;20033;-70
2021/11/20 09:27:14;;;;;;;25.05;20.90;;;11.30;83.20;;;;;;5039039;28;20052;-69
2021/11/20 09:29:41;;;;;;;25.55;21.92;;;11.30;83.20;;;;;;5051709;28;20049;-69
2021/11/20 09:32:08;;;;;;;26.30;22.52;;;11.40;83.20;;;;;;5045700;28;20443;-70
2021/11/20 09:34:34;;;;;;;28.60;22.33;;;11.40;83.00;;;;;;5047558;28;20036;-69
2021/11/20 09:37:00;;;;;;;23.45;19.88;;;11.40;82.70;;;;;;5050923;28;20033;-70
2021/11/20 09:39:34;;;;;;;23.83;19.65;;;11.30;82.60;;;;;;5064132;28;20048;-70
2021/11/20 09:42:27;;;;;;;24.80;20.58;;;11.40;82.80;;;;;;5063011;28;20025;-71
2021/11/20 09:44:57;;;;;;;25.27;20.85;;;11.40;82.90;;;;;;5066125;28;20025;-73
2021/11/20 09:47:34;;;;;;;25.42;22.17;;;11.30;82.80;;;;;;5068045;28;20044;-71
2021/11/20 09:50:20;;;;;;;24.83;20.15;;;11.30;82.90;;;;;;5048056;28;20067;-70
2021/11/20 09:52:48;;;;;;;23.15;18.73;;;11.30;82.90;;;;;;5081587;28;20045;-70
2021/11/20 09:55:19;;;;;;;23.52;20.10;;;11.30;82.90;;;;;;5065906;28;20040;-70
2021/11/20 09:58:16;;;;;;;23.77;19.63;;;11.40;82.90;;;;;;5066043;28;20078;-72
2021/11/20 10:01:06;;;;;;;23.67;20.10;;;11.40;82.40;;;;;;5057796;28;20043;-70
2021/11/20 10:03:50;;;;;;;23.20;19.85;;;11.40;82.50;;;;;;5056012;28;20116;-70
2021/11/20 10:06:29;;;;;;;20.98;18.48;;;11.40;81.60;;;;;;5066950;28;20033;-70
2021/11/20 10:09:12;;;;;;;21.75;19.00;;;11.40;81.20;;;;;;5067212;28;20044;-70
2021/11/20 10:12:05;;;;;;;22.13;18.88;;;11.40;81.20;;;;;;5043304;28;20084;-70
2021/11/20 10:14:33;;;;;;;22.35;18.55;;;11.40;80.80;;;;;;5057340;28;20552;-69
2021/11/20 10:17:14;;;;;;;22.92;20.02;;;11.30;81.10;;;;;;5032556;28;20054;-69
2021/11/20 10:19:45;;;;;;;22.83;18.60;;;11.40;81.00;;;;;;5048016;28;20471;-69
2021/11/20 10:22:32;;;;;;;21.83;18.10;;;11.40;81.20;;;;;;5042833;28;20030;-70
2021/11/20 10:25:43;;;;;;;24.33;19.52;;;11.50;80.90;;;;;;5064532;28;20035;-71
2021/11/20 10:28:18;;;;;;;25.42;21.10;;;11.50;80.90;;;;;;5056349;28;20029;-69
2021/11/20 10:31:23;;;;;;;23.73;21.15;;;11.60;80.90;;;;;;5068675;28;20135;-69
2021/11/20 10:34:14;;;;;;;22.65;19.40;;;11.60;81.00;;;;;;5045230;28;20032;-69
2021/11/20 10:36:52;;;;;;;23.27;20.77;;;11.70;80.90;;;;;;5049243;28;20040;-69
2021/11/20 10:39:35;;;;;;;27.05;21.42;;;11.70;80.70;;;;;;5040729;28;20132;-70
2021/11/20 10:42:33;;;;;;;21.40;18.92;;;11.60;80.60;;;;;;5039373;28;20060;-69
2021/11/20 10:45:37;;;;;;;23.65;19.90;;;11.70;80.70;;;;;;5064902;28;20055;-70
2021/11/20 10:48:26;;;;;;;24.20;19.70;;;11.70;80.50;;;;;;5068905;28;20468;-74
2021/11/20 10:51:29;;;;;;;22.77;19.73;;;11.70;80.60;;;;;;5047418;28;20045;-69
2021/11/20 10:54:10;;;;;;;23.15;19.63;;;11.70;80.60;;;;;;5049706;28;20116;-69
2021/11/20 10:57:08;;;;;;;22.65;19.88;;;11.70;80.40;;;;;;5081278;28;20036;-73
2021/11/20 10:59:55;;;;;;;22.58;19.85;;;11.70;80.50;;;;;;5025206;28;20044;-69
2021/11/20 11:02:43;;;;;;;22.13;19.55;;;11.70;80.40;;;;;;5060290;28;20040;-70
2021/11/20 11:05:30;;;;;;;28.67;20.63;;;11.80;80.40;;;;;;5041856;28;20114;-75
2021/11/20 11:08:19;;;;;;;23.52;20.20;;;11.70;80.10;;;;;;5042732;28;20033;-70
2021/11/20 11:10:49;;;;;;;22.98;19.88;;;11.80;80.00;;;;;;5046373;28;20124;-70
2021/11/20 11:13:47;;;;;;;23.73;19.75;;;11.80;79.90;;;;;;5041829;28;20507;-70
2021/11/20 11:16:31;;;;;;;23.98;20.83;;;11.80;80.30;;;;;;5036880;28;20037;-69
2021/11/20 11:19:13;;;;;;;24.50;21.73;;;11.90;79.90;;;;;;5039359;28;20487;-72
2021/11/20 11:21:42;;;;;;;23.17;20.17;;;11.90;79.60;;;;;;5045229;28;20033;-71
2021/11/20 11:24:26;;;;;;;21.85;19.52;;;11.80;79.60;;;;;;5043577;28;20033;-70
2021/11/20 11:26:57;;;;;;;21.90;19.53;;;11.80;79.50;;;;;;5045740;28;20037;-70
2021/11/20 11:29:59;;;;;;;25.77;21.25;;;11.80;79.10;;;;;;5045346;28;20041;-70
2021/11/20 11:32:28;;;;;;;23.88;21.38;;;11.80;79.10;;;;;;5042765;28;20067;-71
2021/11/20 11:35:31;;;;;;;24.15;21.27;;;11.80;79.40;;;;;;5045940;28;20045;-70
2021/11/20 11:38:16;;;;;;;24.00;21.40;;;11.80;79.30;;;;;;5031382;28;20063;-70
2021/11/20 11:40:45;;;;;;;;;;;11.90;79.40;;;;;;5051778;28;20119;-69
2021/11/20 11:43:30;;;;;;;22.48;19.70;;;11.90;79.10;;;;;;5037978;28;19920;-70
2021/11/20 11:46:01;;;;;;;22.73;20.27;;;11.80;78.80;;;;;;5037885;28;20036;-72
2021/11/20 11:48:45;;;;;;;23.23;20.73;;;11.80;78.70;;;;;;5065131;28;20052;-73
2021/11/20 11:51:49;;;;;;;22.92;20.42;;;11.80;78.70;;;;;;5073729;28;20029;-71
2021/11/20 11:54:33;;;;;;;24.25;21.63;;;11.80;78.70;;;;;;5046599;28;20037;-70
2021/11/20 11:57:04;;;;;;;24.73;22.02;;;11.80;78.90;;;;;;5056275;28;20037;-71
2021/11/20 11:59:36;;;;;;;24.23;21.60;;;11.80;78.90;;;;;;5060645;28;20079;-72
2021/11/20 12:02:25;;;;;;;25.85;21.60;;;11.80;78.80;;;;;;5055007;28;20040;-73
2021/11/20 12:05:23;;;;;;;25.45;22.45;;;11.70;79.00;;;;;;5039879;28;20636;-70
2021/11/20 12:07:49;;;;;;;25.85;23.00;;;11.80;79.30;;;;;;5033637;28;20041;-70
2021/11/20 12:10:46;;;;;;;25.65;22.10;;;11.80;78.90;;;;;;5040002;28;20045;-71
2021/11/20 12:13:12;;;;;;;25.25;21.85;;;11.80;78.90;;;;;;5039501;28;20033;-71
2021/11/20 12:15:45;;;;;;;26.40;21.80;;;11.80;78.60;;;;;;5040485;28;20095;-69
2021/11/20 12:18:25;;;;;;;24.80;21.83;;;11.80;78.60;;;;;;5044167;28;20045;-70
2021/11/20 12:21:21;;;;;;;26.55;23.70;;;11.90;78.90;;;;;;5040671;28;20048;-69
2021/11/20 12:23:58;;;;;;;25.92;23.05;;;11.80;78.70;;;;;;5029406;28;20037;-69
2021/11/20 12:26:51;;;;;;;26.27;23.40;;;11.90;78.70;;;;;;5034223;28;20045;-70
2021/11/20 12:29:33;;;;;;;26.13;23.30;;;12.00;78.80;;;;;;5035353;28;20475;-70
2021/11/20 12:32:36;;;;;;;26.02;23.23;;;11.90;78.70;;;;;;5039320;28;20037;-70
2021/11/20 12:35:31;;;;;;;26.30;23.58;;;11.90;79.00;;;;;;5029665;28;20095;-71
2021/11/20 12:38:04;;;;;;;26.60;23.77;;;11.90;78.50;;;;;;5041937;28;20037;-71
2021/11/20 12:40:46;;;;;;;27.35;23.95;;;12.00;78.50;;;;;;5062506;28;20095;-71
2021/11/20 12:43:27;;;;;;;28.80;23.02;;;12.00;78.30;;;;;;5036154;28;20045;-71
2021/11/20 12:46:14;;;;;;;26.30;23.42;;;12.10;78.30;;;;;;5045862;28;20032;-71
2021/11/20 12:49:12;;;;;;;25.55;22.45;;;12.10;78.40;;;;;;5033888;28;20033;-71
2021/11/20 12:52:22;;;;;;;26.80;23.55;;;12.10;77.60;;;;;;5044118;28;20056;-71
2021/11/20 12:54:57;;;;;;;25.30;22.60;;;12.10;77.30;;;;;;5026008;28;20447;-71
2021/11/20 12:57:28;;;;;;;27.17;23.38;;;11.90;77.70;;;;;;5022631;28;20369;-71